الصفحة الرئيسية
METAR-TAF:

METAR-TAF

مطار :

مطار الوجه المحلي

الوجه, السعودية

دائرة عرض: 26-12N, خط طول: 036-28E, ارتفاع: 20 متر

مراقبة الطقس الحالي

تاريخ ووقت الإصدار 1ساعة و 9 دقيقة قبل الساعة 07:00UTC
ريح 10 عقدة من الجنوب
درجة الحرارة 29°درجة مئوية
الرطوبة 79%
ضغط 1010 hPa
الرؤية 10 كم أو أكثر
غيوم قليلة على ارتفاع 4000 قدم

METAR: OEWJ 260700Z 19010KT 9999 FEW040 29/25 Q1010 NOSIG

زمن: 11:09 (08:09 UTC)

توقعات

تاريخ ووقت الإصدار 9ساعات و 9 دقيقة قبل الساعة 23:00UTC
التوقعات صالحة من26 الساعة 00 UTC إلى 27 الساعة 06 UTC
ريح 3 عقدةمن اتجاهات متغيرة
الرؤية: 8000 متر
غيوم قليلة على ارتفاع 4000 قدم
نظرية الاحتمالات 30% :
مؤقت
من 26 الساعة 00 UTC إلى 26 الساعة 05 UTC
الرؤية: 3000 متر
غشاء
أصبح
من 26 الساعة 08 UTC إلى 26 الساعة 10 UTC
ريح 6 عقدة من الغرب/الشمال الغربي تتزايد حتى 16 عقدة

TAF: OEWJ 252300Z 2600/2706 VRB03KT 8000 FEW040 PROB30 TEMPO 2600/2605 3000 BR BECMG 2608/2610 30006G16KT

أرصاد الطقس والتوقعات من أكثر من 4000 مطار (تقارير الطقس للمطار METAR والتنبؤ بالطقس بالمطارTAF).

المحطات المتاحة هي النقط الصفراء والحمراء على الخريطة.

حرك المؤشر فوق النقطة لمعرفة اسم المحطة.

ثم انقر لمعرفة أرصاد وتوقعات الطقس.

لتغيير الخارطة: اضغط على الأزرار الخضراء مع رمز الصليب الأسود للتكبير. على الزر الأخضر مع شرطة للتصغير، أو على الأسهم الخضراء للخرائط المجاورة.


METAR-TAF: